Main page
METAR-TAF:

METAR-TAF

Airports :

Angoulême – Cognac International Airport

Angoulême, France

latitude: 45-43-46N, longitude: 00-13-08E, elevation: 132 m

Current weather observation

The report was made 19 minutes ago, at 17:30 UTC
Wind 3 kt from the East/Southeast
Temperature 13°C
Humidity 88%
Pressure 1019 hPa
Visibility 10 km or more
no clouds below 1500 m and no cumulonimbus

METAR: LFBU 151730Z AUTO 12003KT CAVOK 13/11 Q1019 NOSIG

Time: 18:49 (17:49 UTC)

Forecast

The report was made 49 minutes ago, at 17:00 UTC
Forecast valid from 15 at 18 UTC to 16 at 18 UTC
Wind 5 kt from the East/Southeast
Visibility 10 km or more
no clouds below 1500 m and no cumulonimbus
Probability 30% :
Temporary
from 16 at 00 UTC to 16 at 08 UTC
Visibility: 3000 m
mist

TAF: LFBU 151700Z 1518/1618 12005KT CAVOK PROB30 TEMPO 1600/1608 3000 BR

Weather observations and forecasts of more than 4000 airports (METAR and TAF reports).

The available stations are represented by yellow and red dots on the map.

Hover mouse over dot to see the name of the station.

Then click to see weather observations and forecasts.

To change the map : click on the green buttons with a black cross to zoom in, on the green button with a dash to zoom out, or on the green arrows for adjacent maps.


METAR-TAF: